Time;durP1;ratioP1;P1;durP2;ratioP2;P2;SDS_P1;SDS_P2;PMS_P1;PMS_P2;Temp;Humidity;BMP_temperature;BMP_pressure;BME280_temperature;BME280_humidity;BME280_pressure;Samples;Min_cycle;Max_cycle;Signal;HPM_P1;HPM_P2
2022/05/30 00:00:15;;;;;;;1.73;0.60;;;23.70;35.60;;;;;;5140097;28;20083;-39
2022/05/30 00:02:41;;;;;;;0.93;0.40;;;23.70;35.70;;;;;;5141240;27;20019;-39
2022/05/30 00:05:08;;;;;;;2.50;0.45;;;23.60;35.60;;;;;;5139597;28;20034;-37
2022/05/30 00:07:36;;;;;;;1.30;0.45;;;23.70;35.70;;;;;;5136977;27;20073;-39
2022/05/30 00:10:01;;;;;;;1.17;0.43;;;23.60;35.60;;;;;;5140699;27;20043;-37
2022/05/30 00:12:28;;;;;;;1.77;0.60;;;23.70;35.70;;;;;;5139703;27;20550;-40
2022/05/30 00:14:54;;;;;;;1.27;0.50;;;23.60;35.70;;;;;;5140076;27;20475;-38
2022/05/30 00:17:21;;;;;;;1.38;0.60;;;23.60;35.70;;;;;;5139601;27;20086;-38
2022/05/30 00:19:48;;;;;;;2.63;0.60;;;23.60;35.70;;;;;;5139567;27;20019;-38
2022/05/30 00:22:14;;;;;;;1.92;0.57;;;23.60;35.70;;;;;;5138577;27;20043;-38
2022/05/30 00:24:43;;;;;;;1.33;0.50;;;23.70;35.70;;;;;;5138326;27;20538;-38
2022/05/30 00:27:10;;;;;;;1.17;0.50;;;23.60;35.70;;;;;;5137774;27;20019;-36
2022/05/30 00:29:35;;;;;;;1.13;0.50;;;23.60;35.70;;;;;;5137444;27;20473;-37
2022/05/30 00:32:01;;;;;;;1.33;0.57;;;23.60;35.70;;;;;;5137943;27;20098;-39
2022/05/30 00:34:27;;;;;;;1.23;0.40;;;23.60;35.70;;;;;;5138617;27;20015;-37
2022/05/30 00:36:53;;;;;;;1.80;0.52;;;23.60;35.70;;;;;;5140571;27;20381;-38
2022/05/30 00:39:19;;;;;;;1.13;0.32;;;23.60;35.80;;;;;;5139591;27;20088;-37
2022/05/30 00:41:47;;;;;;;0.75;0.40;;;23.60;35.80;;;;;;5140803;27;20038;-38
2022/05/30 00:44:13;;;;;;;1.33;0.40;;;23.60;35.80;;;;;;5139623;27;20047;-37
2022/05/30 00:46:40;;;;;;;1.25;0.40;;;23.60;35.90;;;;;;5137906;27;20481;-37
2022/05/30 00:49:08;;;;;;;1.15;0.47;;;23.60;35.90;;;;;;5139452;27;20018;-37
2022/05/30 00:51:48;;;;;;;1.75;0.50;;;23.50;35.90;;;;;;5119243;27;20015;-38
2022/05/30 00:54:17;;;;;;;1.92;0.40;;;23.60;36.00;;;;;;5137667;27;20011;-37
2022/05/30 00:56:49;;;;;;;1.20;0.50;;;23.60;35.90;;;;;;5137507;27;20018;-37
2022/05/30 00:59:15;;;;;;;1.35;0.30;;;23.60;36.00;;;;;;5138782;27;20028;-37
2022/05/30 01:01:41;;;;;;;1.95;0.45;;;23.60;36.00;;;;;;5137710;27;20020;-36
2022/05/30 01:06:53;;;;;;;0.90;0.40;;;23.50;35.90;;;;;;5136432;27;20058;-36
2022/05/30 01:09:33;;;;;;;2.83;0.50;;;23.60;36.00;;;;;;5136428;27;20023;-37
2022/05/30 01:11:59;;;;;;;1.38;0.50;;;23.50;36.00;;;;;;5136510;27;20068;-36
2022/05/30 01:14:31;;;;;;;0.77;0.45;;;23.50;36.00;;;;;;5136245;27;20015;-36
2022/05/30 01:16:58;;;;;;;2.58;1.02;;;23.50;36.00;;;;;;5136045;27;20015;-36
2022/05/30 01:20:05;;;;;;;0.90;0.50;;;23.50;36.00;;;;;;5136604;27;20019;-36
2022/05/30 01:22:56;;;;;;;1.15;0.43;;;23.50;36.10;;;;;;5135987;27;20084;-36
2022/05/30 01:25:25;;;;;;;1.25;0.50;;;23.50;36.10;;;;;;5135152;27;20034;-37
2022/05/30 01:28:05;;;;;;;0.80;0.32;;;23.50;36.00;;;;;;5136696;27;20008;-36
2022/05/30 01:30:32;;;;;;;1.13;0.40;;;23.50;36.10;;;;;;5135633;27;20067;-36
2022/05/30 01:32:58;;;;;;;1.65;0.60;;;23.50;36.10;;;;;;5136031;27;20022;-36
2022/05/30 01:35:24;;;;;;;1.58;0.45;;;23.50;36.10;;;;;;5137338;27;20019;-36
2022/05/30 01:37:50;;;;;;;0.40;0.30;;;23.50;36.10;;;;;;5140669;27;20079;-37
2022/05/30 01:40:17;;;;;;;1.50;0.50;;;23.50;36.10;;;;;;5141527;27;20023;-36
2022/05/30 01:42:43;;;;;;;1.60;0.55;;;23.40;36.20;;;;;;5140278;27;20026;-38
2022/05/30 01:45:09;;;;;;;1.95;0.40;;;23.40;36.10;;;;;;5141183;27;20046;-39
2022/05/30 01:47:36;;;;;;;1.48;0.40;;;23.40;36.20;;;;;;5140398;27;20064;-37
2022/05/30 01:50:02;;;;;;;1.17;0.50;;;23.40;36.20;;;;;;5138787;27;20019;-38
2022/05/30 01:52:28;;;;;;;1.25;0.65;;;23.40;36.20;;;;;;5137480;27;20481;-36
2022/05/30 01:54:56;;;;;;;1.23;0.40;;;23.40;36.10;;;;;;5137674;27;20023;-37
2022/05/30 01:57:22;;;;;;;1.23;0.43;;;23.40;36.10;;;;;;5137899;27;20094;-37
2022/05/30 01:59:48;;;;;;;1.15;0.40;;;23.40;36.20;;;;;;5139038;27;20064;-36
2022/05/30 02:02:15;;;;;;;1.05;0.40;;;23.50;36.20;;;;;;5140940;27;20023;-37
2022/05/30 02:04:44;;;;;;;0.93;0.38;;;23.40;36.20;;;;;;5139868;27;20025;-37
2022/05/30 02:07:11;;;;;;;2.30;0.60;;;23.40;36.20;;;;;;5140192;27;20027;-37
2022/05/30 02:09:37;;;;;;;0.82;0.40;;;23.40;36.20;;;;;;5140788;27;20051;-38
2022/05/30 02:12:03;;;;;;;1.65;0.50;;;23.40;36.20;;;;;;5139926;27;20019;-38
2022/05/30 02:14:29;;;;;;;2.20;0.50;;;23.40;36.30;;;;;;5140796;27;20090;-39
2022/05/30 02:17:00;;;;;;;1.13;0.40;;;23.40;36.20;;;;;;5140435;27;20057;-38
2022/05/30 02:19:31;;;;;;;1.33;0.40;;;23.40;36.30;;;;;;5140325;27;20075;-39
2022/05/30 02:21:57;;;;;;;1.80;0.55;;;23.40;36.30;;;;;;5140098;27;20043;-37
2022/05/30 02:24:23;;;;;;;1.05;0.40;;;23.40;36.30;;;;;;5139262;27;20067;-37
2022/05/30 02:26:50;;;;;;;1.42;0.50;;;23.40;36.30;;;;;;5139710;27;20065;-37
2022/05/30 02:29:15;;;;;;;1.20;0.50;;;23.30;36.30;;;;;;5136535;27;20011;-37
2022/05/30 02:31:42;;;;;;;1.23;0.40;;;23.30;36.30;;;;;;5134169;27;20557;-36
2022/05/30 02:36:52;;;;;;;1.73;0.50;;;23.30;36.30;;;;;;5141515;27;20030;-39
2022/05/30 02:39:23;;;;;;;0.70;0.40;;;23.40;36.30;;;;;;5141674;27;20035;-40
2022/05/30 02:41:49;;;;;;;3.50;0.98;;;23.30;36.30;;;;;;5140257;27;20011;-38
2022/05/30 02:44:18;;;;;;;1.10;0.30;;;23.30;36.30;;;;;;5141010;27;20030;-41
2022/05/30 02:46:44;;;;;;;0.73;0.40;;;23.30;36.30;;;;;;5140775;27;20023;-38
2022/05/30 02:49:11;;;;;;;1.58;0.50;;;23.30;36.40;;;;;;5141494;27;20015;-40
2022/05/30 02:51:37;;;;;;;1.65;0.50;;;23.30;36.30;;;;;;5141924;27;20011;-39
2022/05/30 02:54:04;;;;;;;1.33;0.35;;;23.30;36.40;;;;;;5140428;27;20497;-37
2022/05/30 02:56:30;;;;;;;1.15;0.40;;;23.30;36.30;;;;;;5140670;27;20019;-37
2022/05/30 02:58:59;;;;;;;1.33;0.50;;;23.30;36.30;;;;;;5139292;27;20039;-38
2022/05/30 03:01:25;;;;;;;3.33;0.60;;;23.30;36.40;;;;;;5138009;27;20023;-36
2022/05/30 03:03:52;;;;;;;3.38;0.80;;;23.30;36.40;;;;;;5138879;27;20024;-39
2022/05/30 03:06:18;;;;;;;1.55;0.43;;;23.30;36.40;;;;;;5137056;27;20055;-37
2022/05/30 03:08:44;;;;;;;1.20;0.57;;;23.30;36.40;;;;;;5137162;27;20019;-38
2022/05/30 03:11:10;;;;;;;1.33;0.50;;;23.30;36.40;;;;;;5137940;27;20007;-37
2022/05/30 03:13:36;;;;;;;1.00;0.47;;;23.30;36.50;;;;;;5136695;27;20094;-37
2022/05/30 03:16:02;;;;;;;1.30;0.40;;;23.30;36.50;;;;;;5137090;27;20019;-38
2022/05/30 03:18:28;;;;;;;0.95;0.40;;;23.20;36.40;;;;;;5136321;28;20023;-38
2022/05/30 03:20:54;;;;;;;1.35;0.47;;;23.30;36.50;;;;;;5135675;28;20058;-38
2022/05/30 03:23:20;;;;;;;1.70;0.47;;;23.30;36.50;;;;;;5135678;28;20023;-40
2022/05/30 03:25:46;;;;;;;1.40;0.40;;;23.30;36.50;;;;;;5116957;28;20069;-39
2022/05/30 03:28:13;;;;;;;1.48;0.50;;;23.30;36.50;;;;;;5134675;28;20014;-37
2022/05/30 03:30:39;;;;;;;1.92;0.52;;;23.30;36.50;;;;;;5134822;27;20043;-37
2022/05/30 03:33:05;;;;;;;1.02;0.40;;;23.20;36.50;;;;;;5115956;28;20038;-36
2022/05/30 03:35:31;;;;;;;1.40;0.45;;;23.30;36.50;;;;;;5133897;27;20026;-36
2022/05/30 03:37:57;;;;;;;1.70;0.50;;;23.20;36.50;;;;;;5134323;27;20019;-37
2022/05/30 03:40:23;;;;;;;1.48;0.43;;;23.20;36.60;;;;;;5132957;28;20470;-36
2022/05/30 03:42:49;;;;;;;1.02;0.40;;;23.20;36.50;;;;;;5134365;27;20067;-37
2022/05/30 03:45:14;;;;;;;1.38;0.40;;;23.20;36.50;;;;;;5136602;27;20029;-37
2022/05/30 03:47:42;;;;;;;0.93;0.50;;;23.20;36.50;;;;;;5138987;27;20007;-36
2022/05/30 03:50:10;;;;;;;2.60;0.50;;;23.20;36.50;;;;;;5138584;27;20461;-36
2022/05/30 03:52:36;;;;;;;1.10;0.50;;;23.20;36.50;;;;;;5138357;27;20020;-37
2022/05/30 03:55:06;;;;;;;1.40;0.43;;;23.20;37.10;;;;;;5138059;27;20003;-37
2022/05/30 03:57:33;;;;;;;1.50;0.38;;;23.20;36.50;;;;;;5136980;27;20086;-36
2022/05/30 03:59:59;;;;;;;1.17;0.50;;;23.20;36.50;;;;;;5138061;27;20016;-38
2022/05/30 04:02:26;;;;;;;1.10;0.35;;;23.20;36.50;;;;;;5137922;27;20522;-37
2022/05/30 04:04:52;;;;;;;1.05;0.40;;;23.20;36.50;;;;;;5136714;27;20018;-36
2022/05/30 04:07:17;;;;;;;1.60;0.40;;;23.20;36.60;;;;;;5138892;27;20027;-37
2022/05/30 04:09:44;;;;;;;1.27;0.50;;;23.20;36.60;;;;;;5138179;27;20080;-37
2022/05/30 04:12:10;;;;;;;1.20;0.50;;;23.30;37.20;;;;;;5138437;27;20019;-37
2022/05/30 04:14:37;;;;;;;1.75;0.55;;;23.20;36.60;;;;;;5138628;27;20023;-36
2022/05/30 04:17:03;;;;;;;1.90;0.47;;;23.20;36.60;;;;;;5138026;27;20019;-36
2022/05/30 04:19:30;;;;;;;1.05;0.40;;;23.20;36.60;;;;;;5137540;27;20031;-36
2022/05/30 04:21:56;;;;;;;1.38;0.50;;;23.20;36.60;;;;;;5136894;27;20118;-36
2022/05/30 04:24:22;;;;;;;1.05;0.50;;;23.20;36.60;;;;;;5136919;27;20019;-36
2022/05/30 04:26:48;;;;;;;1.17;0.40;;;23.20;36.70;;;;;;5137950;27;20019;-36
2022/05/30 04:29:14;;;;;;;0.85;0.40;;;23.20;36.70;;;;;;5136496;27;20011;-36
2022/05/30 04:31:40;;;;;;;1.10;0.40;;;23.10;36.60;;;;;;5137569;27;20019;-36
2022/05/30 04:34:07;;;;;;;1.70;0.40;;;23.20;36.70;;;;;;5137571;27;20023;-37
2022/05/30 04:36:33;;;;;;;1.23;0.50;;;23.20;36.70;;;;;;5143214;27;20019;-38
2022/05/30 04:38:59;;;;;;;2.10;0.60;;;23.20;36.70;;;;;;5142090;27;20054;-39
2022/05/30 04:41:25;;;;;;;1.23;0.47;;;23.20;36.70;;;;;;5142713;27;20027;-37
2022/05/30 04:43:51;;;;;;;0.88;0.40;;;23.10;36.60;;;;;;5141912;27;20028;-39
2022/05/30 04:46:18;;;;;;;0.60;0.30;;;23.20;36.80;;;;;;5142972;27;20111;-37
2022/05/30 04:48:44;;;;;;;1.20;0.40;;;23.20;36.70;;;;;;5140116;27;20010;-37
2022/05/30 04:51:10;;;;;;;1.52;0.60;;;23.20;36.70;;;;;;5142901;27;20030;-37
2022/05/30 04:53:36;;;;;;;1.08;0.55;;;23.20;36.70;;;;;;5143143;27;20011;-38
2022/05/30 04:56:03;;;;;;;1.17;0.40;;;23.20;36.70;;;;;;5141869;27;20011;-38
2022/05/30 04:58:29;;;;;;;1.85;0.60;;;23.10;36.70;;;;;;5141498;27;20419;-40
2022/05/30 05:01:06;;;;;;;0.77;0.40;;;23.20;36.70;;;;;;5141455;27;20039;-43
2022/05/30 05:03:33;;;;;;;1.40;0.60;;;23.20;36.80;;;;;;5142958;27;20015;-39
2022/05/30 05:06:09;;;;;;;0.60;0.43;;;23.20;36.70;;;;;;5142541;27;20051;-36
2022/05/30 05:08:47;;;;;;;0.85;0.50;;;23.20;36.70;;;;;;5141859;27;20047;-39
2022/05/30 05:11:14;;;;;;;1.48;0.50;;;23.20;36.70;;;;;;5141147;27;20412;-38
2022/05/30 05:13:40;;;;;;;2.05;0.50;;;23.20;36.70;;;;;;5140460;27;20015;-37
2022/05/30 05:16:06;;;;;;;1.23;0.47;;;23.20;36.70;;;;;;5140918;27;20027;-37
2022/05/30 05:18:32;;;;;;;0.73;0.40;;;23.20;36.60;;;;;;5142012;27;20015;-42
2022/05/30 05:20:57;;;;;;;0.88;0.50;;;23.30;36.70;;;;;;5138330;27;20050;-37
2022/05/30 05:23:23;;;;;;;1.35;0.40;;;23.30;36.60;;;;;;5137506;27;20021;-37
2022/05/30 05:25:49;;;;;;;1.63;0.60;;;23.50;36.50;;;;;;5136910;27;20037;-38
2022/05/30 05:28:14;;;;;;;2.08;0.70;;;23.60;36.10;;;;;;5137866;27;20046;-37
2022/05/30 05:30:41;;;;;;;1.10;0.47;;;23.70;35.80;;;;;;5138034;27;20478;-37
2022/05/30 05:33:07;;;;;;;0.52;0.40;;;23.80;35.60;;;;;;5137743;27;20023;-38
2022/05/30 05:35:32;;;;;;;0.70;0.40;;;23.90;35.40;;;;;;5135998;27;20037;-36
2022/05/30 05:38:00;;;;;;;1.50;0.50;;;24.00;35.30;;;;;;5135738;27;20123;-36
2022/05/30 05:40:27;;;;;;;0.85;0.40;;;24.10;35.10;;;;;;5136025;27;20064;-36
2022/05/30 05:42:53;;;;;;;1.75;0.52;;;24.10;35.00;;;;;;5135908;27;20057;-37
2022/05/30 05:45:19;;;;;;;0.82;0.40;;;24.20;34.90;;;;;;5135490;27;20068;-37
2022/05/30 05:47:45;;;;;;;1.15;0.50;;;24.30;34.80;;;;;;5134963;27;20102;-37
2022/05/30 05:50:10;;;;;;;2.03;0.57;;;24.30;34.80;;;;;;5134604;27;20011;-37
2022/05/30 05:52:36;;;;;;;1.45;0.47;;;24.30;34.70;;;;;;5134395;27;20475;-37
2022/05/30 05:55:04;;;;;;;1.25;0.50;;;24.30;34.60;;;;;;5135059;27;20011;-37
2022/05/30 05:57:30;;;;;;;1.35;0.47;;;24.40;34.60;;;;;;5135800;27;20491;-36
2022/05/30 05:59:56;;;;;;;1.20;0.50;;;24.40;34.60;;;;;;5135469;27;20043;-36
2022/05/30 06:02:27;;;;;;;1.23;0.50;;;24.40;34.50;;;;;;5134405;27;20051;-38
2022/05/30 06:04:54;;;;;;;1.27;0.50;;;24.50;34.40;;;;;;5137159;27;20050;-39
2022/05/30 06:07:19;;;;;;;1.38;0.40;;;24.50;34.40;;;;;;5138461;27;20037;-39
2022/05/30 06:09:46;;;;;;;0.90;0.50;;;24.50;34.40;;;;;;5138755;27;20019;-37
2022/05/30 06:12:12;;;;;;;0.93;0.40;;;24.60;34.30;;;;;;5138238;27;20015;-38
2022/05/30 06:14:39;;;;;;;2.15;0.60;;;24.50;34.30;;;;;;5137507;27;20034;-37
2022/05/30 06:17:06;;;;;;;1.23;0.50;;;24.60;34.80;;;;;;5137557;27;20011;-37
2022/05/30 06:19:33;;;;;;;1.73;0.65;;;24.60;34.20;;;;;;5137786;27;20014;-37
2022/05/30 06:21:59;;;;;;;0.65;0.43;;;24.70;34.20;;;;;;5134675;27;20054;-37
2022/05/30 06:24:26;;;;;;;0.80;0.47;;;24.70;34.00;;;;;;5134655;27;20366;-38
2022/05/30 06:26:53;;;;;;;1.23;0.60;;;24.70;34.10;;;;;;5134855;27;20023;-37
2022/05/30 06:29:19;;;;;;;1.10;0.70;;;24.80;34.00;;;;;;5134825;27;20016;-37
2022/05/30 06:31:46;;;;;;;2.00;0.65;;;24.80;33.90;;;;;;5134608;27;20011;-38
2022/05/30 06:34:12;;;;;;;2.40;0.50;;;24.90;33.80;;;;;;5134801;27;20015;-37
2022/05/30 06:36:40;;;;;;;1.65;0.40;;;25.00;33.70;;;;;;5134211;27;20030;-37
2022/05/30 06:39:06;;;;;;;1.10;0.40;;;25.10;33.70;;;;;;5135018;27;20020;-37
2022/05/30 06:41:32;;;;;;;1.10;0.50;;;25.20;33.50;;;;;;5133046;27;20531;-37
2022/05/30 06:44:02;;;;;;;0.88;0.50;;;25.30;33.40;;;;;;5134699;27;20054;-36
2022/05/30 06:46:28;;;;;;;1.30;0.50;;;25.40;33.30;;;;;;5134669;27;20019;-37
2022/05/30 06:48:56;;;;;;;1.10;0.50;;;25.60;32.80;;;;;;5134961;27;20060;-38
2022/05/30 06:51:22;;;;;;;1.65;0.47;;;25.70;32.70;;;;;;5134388;27;20018;-36
2022/05/30 06:53:48;;;;;;;1.10;0.50;;;25.80;32.70;;;;;;5134600;27;20015;-37
2022/05/30 06:56:19;;;;;;;3.25;0.55;;;25.90;32.50;;;;;;5134275;27;20457;-37
2022/05/30 06:58:46;;;;;;;2.15;0.70;;;25.90;32.40;;;;;;5134358;27;20026;-37
2022/05/30 07:01:12;;;;;;;3.38;0.60;;;25.90;32.30;;;;;;5134433;27;20068;-37
2022/05/30 07:03:39;;;;;;;2.65;0.60;;;25.90;32.40;;;;;;5132803;27;20023;-38
2022/05/30 07:06:08;;;;;;;1.83;0.60;;;25.90;32.40;;;;;;5134046;27;20046;-38
2022/05/30 07:08:35;;;;;;;2.25;0.50;;;26.10;32.50;;;;;;5134075;27;20012;-37
2022/05/30 07:11:01;;;;;;;2.28;0.60;;;26.30;32.20;;;;;;5134908;27;20015;-37
2022/05/30 07:13:28;;;;;;;1.63;0.50;;;26.40;31.80;;;;;;5134608;27;20019;-35
2022/05/30 07:15:53;;;;;;;2.15;0.60;;;26.60;31.80;;;;;;5134781;27;20011;-35
2022/05/30 07:18:19;;;;;;;4.32;0.50;;;26.90;31.40;;;;;;5133275;27;20030;-37
2022/05/30 07:20:45;;;;;;;0.88;0.50;;;27.00;31.10;;;;;;5134760;28;20026;-38
2022/05/30 07:23:12;;;;;;;2.05;0.60;;;27.00;31.00;;;;;;5134477;27;20076;-36
2022/05/30 07:25:40;;;;;;;1.42;0.60;;;26.90;31.30;;;;;;5116513;28;20122;-36
2022/05/30 07:28:06;;;;;;;1.95;0.75;;;27.00;31.20;;;;;;5134537;27;20034;-36
2022/05/30 07:30:34;;;;;;;2.50;0.70;;;27.10;30.90;;;;;;5134380;28;20446;-36
2022/05/30 07:33:02;;;;;;;3.45;0.60;;;27.00;31.10;;;;;;5134954;27;20003;-36
2022/05/30 07:35:28;;;;;;;3.00;0.68;;;27.00;31.10;;;;;;5136906;28;20019;-39
2022/05/30 07:37:55;;;;;;;1.08;0.55;;;26.80;31.20;;;;;;5141870;27;20019;-38
2022/05/30 07:40:22;;;;;;;2.83;0.90;;;26.70;31.30;;;;;;5140898;28;20023;-40
2022/05/30 07:42:48;;;;;;;3.63;0.73;;;26.60;31.40;;;;;;5141725;27;20047;-38
2022/05/30 07:45:14;;;;;;;2.33;0.88;;;26.50;31.60;;;;;;5141632;27;20307;-40
2022/05/30 07:47:40;;;;;;;5.63;0.80;;;26.40;31.70;;;;;;5124570;28;20046;-38
2022/05/30 07:50:06;;;;;;;5.15;0.82;;;26.40;31.80;;;;;;5141889;28;20449;-39
2022/05/30 07:52:33;;;;;;;6.00;1.13;;;26.30;31.90;;;;;;5144135;27;20046;-40
2022/05/30 07:54:59;;;;;;;5.70;1.00;;;26.30;32.10;;;;;;5124586;28;20038;-39
2022/05/30 08:00:10;;;;;;;7.38;1.10;;;26.10;32.20;;;;;;5142056;28;20022;-38
2022/05/30 08:02:38;;;;;;;7.57;1.17;;;26.10;32.40;;;;;;5142151;27;20019;-39
2022/05/30 08:05:07;;;;;;;5.25;1.00;;;26.00;32.50;;;;;;5139694;27;20007;-38
2022/05/30 08:07:33;;;;;;;8.05;1.15;;;26.00;32.60;;;;;;5137747;27;20023;-39
2022/05/30 08:09:59;;;;;;;4.72;0.93;;;25.90;32.60;;;;;;5137935;28;20018;-37
2022/05/30 08:12:25;;;;;;;7.43;1.20;;;25.90;32.80;;;;;;5137514;28;20071;-38
2022/05/30 08:14:52;;;;;;;9.70;1.40;;;25.80;32.80;;;;;;5136864;28;20014;-37
2022/05/30 08:17:18;;;;;;;3.95;1.08;;;25.80;32.80;;;;;;5137026;27;20023;-38
2022/05/30 08:19:44;;;;;;;5.75;0.90;;;25.70;32.90;;;;;;5137420;28;20027;-36
2022/05/30 08:22:10;;;;;;;6.13;0.82;;;25.70;33.00;;;;;;5136130;28;20126;-37
2022/05/30 08:24:37;;;;;;;7.93;1.50;;;25.70;33.10;;;;;;5137479;28;20094;-36
2022/05/30 08:27:03;;;;;;;5.15;0.95;;;25.60;33.60;;;;;;5137373;27;20098;-36
2022/05/30 08:29:30;;;;;;;7.50;1.10;;;25.60;33.10;;;;;;5137256;27;20030;-37
2022/05/30 08:31:56;;;;;;;8.55;1.05;;;25.50;33.10;;;;;;5139148;27;20018;-36
2022/05/30 08:34:22;;;;;;;5.20;1.25;;;25.50;33.20;;;;;;5139738;27;20019;-35
2022/05/30 08:36:48;;;;;;;6.00;1.33;;;25.50;33.30;;;;;;5140576;27;20369;-35
2022/05/30 08:42:00;;;;;;;4.88;1.42;;;25.50;33.30;;;;;;5139551;27;20083;-35
2022/05/30 08:44:29;;;;;;;4.90;1.17;;;25.50;33.30;;;;;;5140394;27;20090;-36
2022/05/30 08:47:15;;;;;;;4.07;0.85;;;25.50;33.30;;;;;;5140965;27;20023;-37
2022/05/30 08:49:47;;;;;;;8.10;1.25;;;25.50;33.30;;;;;;5141171;27;20012;-36
2022/05/30 08:52:29;;;;;;;5.05;0.90;;;25.50;33.20;;;;;;5139031;27;20019;-36
2022/05/30 08:55:00;;;;;;;2.97;0.80;;;25.50;33.30;;;;;;5138188;27;20023;-36
2022/05/30 08:57:54;;;;;;;5.47;1.00;;;25.50;33.20;;;;;;5137716;27;20027;-35
2022/05/30 09:00:30;;;;;;;4.90;1.00;;;25.50;33.20;;;;;;5138900;27;20094;-35
2022/05/30 09:03:01;;;;;;;9.45;1.20;;;25.50;33.20;;;;;;5138297;27;20023;-36
2022/05/30 09:05:35;;;;;;;6.30;0.98;;;25.50;33.20;;;;;;5138694;27;20122;-35
2022/05/30 09:08:04;;;;;;;4.50;1.10;;;25.60;33.20;;;;;;5138884;27;20027;-36
2022/05/30 09:10:42;;;;;;;8.57;1.38;;;25.60;33.10;;;;;;5140509;27;20505;-35
2022/05/30 09:13:14;;;;;;;7.25;1.08;;;25.70;33.00;;;;;;5139019;27;20066;-36
2022/05/30 09:15:43;;;;;;;5.75;1.05;;;25.60;33.00;;;;;;5140422;27;20018;-36
2022/05/30 09:18:33;;;;;;;10.43;1.38;;;25.60;33.00;;;;;;5140361;27;20019;-35
2022/05/30 09:20:59;;;;;;;11.40;1.25;;;25.50;33.00;;;;;;5139935;27;20485;-36
2022/05/30 09:23:25;;;;;;;9.00;1.27;;;25.50;33.00;;;;;;5140148;27;20035;-36
2022/05/30 09:25:57;;;;;;;9.95;1.10;;;25.50;33.10;;;;;;5141763;27;20114;-36
2022/05/30 09:28:25;;;;;;;7.85;1.25;;;25.40;33.20;;;;;;5140058;27;20049;-37
2022/05/30 09:31:21;;;;;;;13.95;1.40;;;25.40;33.30;;;;;;5140448;27;20040;-37
2022/05/30 09:33:54;;;;;;;7.90;1.15;;;25.30;33.30;;;;;;5142402;27;20026;-37
2022/05/30 09:36:28;;;;;;;12.48;1.30;;;25.20;33.30;;;;;;5142313;27;20039;-36
2022/05/30 09:39:01;;;;;;;7.80;1.27;;;25.20;33.50;;;;;;5140068;27;20019;-35
2022/05/30 09:41:49;;;;;;;11.40;1.45;;;25.10;33.50;;;;;;5138597;27;20560;-36
2022/05/30 09:44:26;;;;;;;5.63;1.15;;;25.10;33.50;;;;;;5137831;27;20031;-37
2022/05/30 09:47:06;;;;;;;8.60;1.23;;;25.10;33.60;;;;;;5138244;27;20026;-37
2022/05/30 09:49:46;;;;;;;8.07;0.90;;;25.10;33.50;;;;;;5137679;27;20058;-37
2022/05/30 09:52:44;;;;;;;11.10;1.37;;;25.20;33.50;;;;;;5138661;27;20019;-38
2022/05/30 09:55:31;;;;;;;8.43;1.65;;;25.20;33.40;;;;;;5054974;28;20064;-39
2022/05/30 09:57:58;;;;;;;13.43;1.20;;;25.20;33.30;;;;;;5055066;28;20116;-37
2022/05/30 10:00:30;;;;;;;7.80;1.10;;;25.20;33.30;;;;;;5040823;28;20045;-37
2022/05/30 10:03:27;;;;;;;6.30;1.27;;;25.30;33.40;;;;;;5057072;28;20029;-37
2022/05/30 10:05:53;;;;;;;10.10;1.10;;;25.30;33.30;;;;;;5051286;28;20057;-36
2022/05/30 10:08:26;;;;;;;6.70;1.20;;;25.20;33.20;;;;;;5039095;28;20021;-38
2022/05/30 10:10:53;;;;;;;8.30;1.30;;;25.20;33.20;;;;;;5054632;28;20017;-38
2022/05/30 10:13:38;;;;;;;6.60;1.20;;;25.20;33.20;;;;;;5054936;28;20013;-37
2022/05/30 10:16:06;;;;;;;4.68;1.30;;;25.20;33.20;;;;;;5053890;28;20089;-37
2022/05/30 10:18:36;;;;;;;7.28;1.30;;;25.20;33.10;;;;;;5054235;28;20033;-37
2022/05/30 10:21:22;;;;;;;11.90;1.10;;;25.30;33.20;;;;;;5054160;28;20044;-40
2022/05/30 10:29:59;;;;;;;6.53;1.35;;;25.30;33.00;;;;;;5052276;27;20022;-38
2022/05/30 10:32:41;;;;;;;5.43;0.95;;;25.30;33.00;;;;;;5138415;27;20465;-38
2022/05/30 10:35:49;;;;;;;6.78;1.23;;;25.30;33.00;;;;;;5120172;27;20038;-37
2022/05/30 10:38:52;;;;;;;4.47;1.00;;;25.30;33.00;;;;;;5135349;27;20023;-37
2022/05/30 10:41:31;;;;;;;4.90;1.20;;;25.30;33.00;;;;;;5135493;27;20019;-38
2022/05/30 10:44:08;;;;;;;4.70;0.93;;;25.40;32.90;;;;;;5135998;27;20011;-40
2022/05/30 10:46:36;;;;;;;6.25;1.35;;;25.40;33.00;;;;;;5135992;27;20019;-37
2022/05/30 10:49:11;;;;;;;4.38;1.00;;;25.40;33.00;;;;;;5134606;27;20007;-38
2022/05/30 10:51:49;;;;;;;3.63;1.30;;;25.40;33.00;;;;;;5134145;27;20023;-37
2022/05/30 10:54:26;;;;;;;5.45;1.05;;;25.40;33.00;;;;;;5133905;27;20019;-38
2022/05/30 10:56:54;;;;;;;6.55;1.10;;;25.40;33.00;;;;;;5135523;27;20019;-38
2022/05/30 10:59:33;;;;;;;3.88;0.95;;;25.40;32.90;;;;;;5118121;27;20034;-39
2022/05/30 11:02:22;;;;;;;5.57;1.25;;;25.40;32.90;;;;;;5135648;27;20099;-37
2022/05/30 11:04:57;;;;;;;6.57;0.82;;;25.40;32.80;;;;;;5135058;27;20044;-38
2022/05/30 11:07:48;;;;;;;3.45;0.80;;;25.50;32.80;;;;;;5136714;27;20034;-38
2022/05/30 11:10:29;;;;;;;4.75;1.23;;;25.60;32.70;;;;;;5137835;27;20020;-39
2022/05/30 11:13:14;;;;;;;5.18;1.08;;;25.60;32.70;;;;;;5137367;27;20026;-37
2022/05/30 11:15:47;;;;;;;3.53;1.00;;;25.70;32.70;;;;;;5136750;27;20090;-37
2022/05/30 11:18:23;;;;;;;3.60;0.90;;;25.70;32.60;;;;;;5138024;27;20023;-37
2022/05/30 11:20:59;;;;;;;3.42;0.77;;;25.70;32.50;;;;;;5136147;27;20007;-37
2022/05/30 11:23:25;;;;;;;3.30;0.80;;;25.80;32.50;;;;;;5134595;28;20011;-36
2022/05/30 11:26:06;;;;;;;4.45;1.20;;;25.80;32.40;;;;;;5134498;28;20492;-37
2022/05/30 11:28:31;;;;;;;4.55;1.17;;;25.90;32.30;;;;;;5134454;28;20049;-37
2022/05/30 11:31:22;;;;;;;5.13;0.73;;;25.90;32.10;;;;;;5135546;28;20019;-37
2022/05/30 11:33:48;;;;;;;4.10;1.02;;;26.00;32.10;;;;;;5135669;27;20008;-40
2022/05/30 11:36:26;;;;;;;2.95;0.75;;;26.00;32.00;;;;;;5136382;28;20088;-37
2022/05/30 11:39:16;;;;;;;2.65;0.90;;;26.10;32.00;;;;;;5136440;28;20076;-38
2022/05/30 11:41:50;;;;;;;;;;;26.10;32.00;;;;;;5135770;28;20016;-38
2022/05/30 11:44:48;;;;;;;4.88;1.08;;;26.10;31.90;;;;;;5135506;28;19926;-38
2022/05/30 11:47:20;;;;;;;4.05;0.90;;;26.10;31.90;;;;;;5135970;27;20046;-38
2022/05/30 11:49:58;;;;;;;4.18;1.23;;;26.10;31.80;;;;;;5137726;28;20011;-40
2022/05/30 11:52:27;;;;;;;3.55;0.80;;;26.10;31.80;;;;;;5140067;27;20071;-40
2022/05/30 11:55:23;;;;;;;3.97;1.15;;;26.10;31.80;;;;;;5137055;28;20542;-40
2022/05/30 11:57:56;;;;;;;2.90;1.00;;;26.10;31.80;;;;;;5138890;27;20027;-43
2022/05/30 12:00:28;;;;;;;2.13;0.73;;;26.00;31.90;;;;;;5137157;28;20007;-38
2022/05/30 12:03:02;;;;;;;2.95;0.93;;;26.00;32.00;;;;;;5137983;27;20490;-38
2022/05/30 12:05:58;;;;;;;2.65;0.88;;;25.90;31.90;;;;;;5139205;27;20541;-38
2022/05/30 12:08:42;;;;;;;3.15;0.65;;;25.90;32.00;;;;;;5141644;27;20020;-39
2022/05/30 12:11:08;;;;;;;2.72;0.70;;;25.90;32.10;;;;;;5141777;27;20512;-38
2022/05/30 12:13:38;;;;;;;1.58;0.80;;;25.90;32.10;;;;;;5141317;27;20034;-38
2022/05/30 12:16:19;;;;;;;2.95;0.70;;;25.80;32.10;;;;;;5140340;27;20011;-40
2022/05/30 12:24:37;;;;;;;2.03;0.63;;;25.80;32.20;;;;;;5137579;27;20088;-38
2022/05/30 12:27:11;;;;;;;3.33;0.75;;;25.80;32.20;;;;;;5138412;27;20491;-37
2022/05/30 12:29:41;;;;;;;1.83;0.60;;;25.70;32.20;;;;;;5138665;27;20069;-38
2022/05/30 12:32:15;;;;;;;2.78;0.90;;;25.70;32.30;;;;;;5140071;27;20015;-39
2022/05/30 12:37:47;;;;;;;3.05;0.60;;;25.60;32.30;;;;;;5139156;27;20034;-38
2022/05/30 12:40:19;;;;;;;2.90;0.97;;;25.60;32.40;;;;;;5138697;27;20023;-43
2022/05/30 12:43:33;;;;;;;2.40;0.82;;;25.60;32.40;;;;;;5137779;27;20054;-39
2022/05/30 12:45:59;;;;;;;2.30;0.65;;;25.50;32.40;;;;;;5136948;27;20107;-38
2022/05/30 12:48:44;;;;;;;2.20;0.80;;;25.60;32.40;;;;;;5136995;27;20019;-38
2022/05/30 12:51:26;;;;;;;1.85;0.60;;;25.50;32.30;;;;;;5141567;27;20017;-38
2022/05/30 12:53:55;;;;;;;1.65;0.75;;;25.50;32.30;;;;;;5141118;27;20015;-38
2022/05/30 12:56:39;;;;;;;3.95;1.08;;;25.50;32.30;;;;;;5141024;27;20011;-39
2022/05/30 12:59:29;;;;;;;2.53;0.80;;;25.50;32.30;;;;;;5140884;27;20045;-39
2022/05/30 13:01:56;;;;;;;1.90;0.63;;;25.60;32.30;;;;;;5142020;27;20017;-41
2022/05/30 13:04:25;;;;;;;1.98;0.70;;;25.60;32.20;;;;;;5140831;27;21105;-38
2022/05/30 13:06:57;;;;;;;1.95;0.70;;;25.60;32.20;;;;;;5138278;27;20026;-38
2022/05/30 13:09:40;;;;;;;2.15;0.88;;;25.60;32.10;;;;;;5137504;27;20050;-39
2022/05/30 13:12:51;;;;;;;2.42;0.80;;;25.60;32.10;;;;;;5136858;27;20027;-41
2022/05/30 13:15:21;;;;;;;2.55;0.85;;;25.60;32.00;;;;;;5136720;27;20011;-39
2022/05/30 13:18:09;;;;;;;2.40;0.80;;;25.60;31.80;;;;;;5119719;27;20015;-40
2022/05/30 13:20:44;;;;;;;3.53;0.85;;;25.70;31.90;;;;;;5120405;27;20541;-37
2022/05/30 13:23:11;;;;;;;2.30;0.65;;;25.60;31.80;;;;;;5140083;27;20018;-40
2022/05/30 13:25:51;;;;;;;1.70;0.68;;;25.70;31.80;;;;;;5141439;27;20124;-41
2022/05/30 13:28:17;;;;;;;1.70;0.70;;;25.60;31.80;;;;;;5140666;27;20385;-39
2022/05/30 13:30:42;;;;;;;1.80;0.60;;;25.60;31.80;;;;;;5140054;27;20040;-39